sensor_id;sensor_type;location;lat;lon;timestamp;P1;durP1;ratioP1;P2;durP2;ratioP2
15293;SDS011;7748;52.474;13.454;2022-07-23T00:00:17;5.83;;;5.03;;
15293;SDS011;7748;52.474;13.454;2022-07-23T00:03:06;5.77;;;4.23;;
15293;SDS011;7748;52.474;13.454;2022-07-23T00:05:58;6.10;;;5.50;;
15293;SDS011;7748;52.474;13.454;2022-07-23T00:08:35;6.27;;;4.70;;
15293;SDS011;7748;52.474;13.454;2022-07-23T00:11:11;7.07;;;4.47;;
15293;SDS011;7748;52.474;13.454;2022-07-23T00:13:46;7.23;;;4.90;;
15293;SDS011;7748;52.474;13.454;2022-07-23T00:16:19;7.97;;;5.57;;
15293;SDS011;7748;52.474;13.454;2022-07-23T00:18:49;8.03;;;5.00;;
15293;SDS011;7748;52.474;13.454;2022-07-23T00:21:21;6.47;;;5.20;;
15293;SDS011;7748;52.474;13.454;2022-07-23T00:23:53;6.93;;;5.10;;
15293;SDS011;7748;52.474;13.454;2022-07-23T00:26:25;6.70;;;5.20;;
15293;SDS011;7748;52.474;13.454;2022-07-23T00:29:12;8.20;;;5.30;;
15293;SDS011;7748;52.474;13.454;2022-07-23T00:31:49;8.60;;;5.10;;
15293;SDS011;7748;52.474;13.454;2022-07-23T00:34:17;8.83;;;4.80;;
15293;SDS011;7748;52.474;13.454;2022-07-23T00:36:45;6.73;;;4.37;;
15293;SDS011;7748;52.474;13.454;2022-07-23T00:39:16;6.30;;;4.50;;
15293;SDS011;7748;52.474;13.454;2022-07-23T00:41:46;7.20;;;5.00;;
15293;SDS011;7748;52.474;13.454;2022-07-23T00:44:22;7.67;;;4.83;;
15293;SDS011;7748;52.474;13.454;2022-07-23T00:46:57;7.47;;;4.60;;
15293;SDS011;7748;52.474;13.454;2022-07-23T00:49:29;8.47;;;4.77;;
15293;SDS011;7748;52.474;13.454;2022-07-23T00:52:14;7.47;;;4.67;;
15293;SDS011;7748;52.474;13.454;2022-07-23T00:54:49;6.23;;;5.07;;
15293;SDS011;7748;52.474;13.454;2022-07-23T00:57:18;5.70;;;4.43;;
15293;SDS011;7748;52.474;13.454;2022-07-23T00:59:56;5.40;;;4.37;;
15293;SDS011;7748;52.474;13.454;2022-07-23T01:02:31;6.23;;;4.77;;
15293;SDS011;7748;52.474;13.454;2022-07-23T01:05:06;7.97;;;5.00;;
15293;SDS011;7748;52.474;13.454;2022-07-23T01:07:41;6.33;;;5.03;;
15293;SDS011;7748;52.474;13.454;2022-07-23T01:10:13;6.87;;;5.07;;
15293;SDS011;7748;52.474;13.454;2022-07-23T01:13:00;6.73;;;4.70;;
15293;SDS011;7748;52.474;13.454;2022-07-23T01:15:35;6.47;;;4.63;;
15293;SDS011;7748;52.474;13.454;2022-07-23T01:18:06;6.97;;;4.60;;
15293;SDS011;7748;52.474;13.454;2022-07-23T01:20:44;6.93;;;4.87;;
15293;SDS011;7748;52.474;13.454;2022-07-23T01:23:26;7.90;;;5.23;;
15293;SDS011;7748;52.474;13.454;2022-07-23T01:25:55;5.87;;;4.53;;
15293;SDS011;7748;52.474;13.454;2022-07-23T01:28:23;8.60;;;5.27;;
15293;SDS011;7748;52.474;13.454;2022-07-23T01:30:55;5.57;;;4.40;;
15293;SDS011;7748;52.474;13.454;2022-07-23T01:33:28;7.83;;;4.40;;
15293;SDS011;7748;52.474;13.454;2022-07-23T01:36:01;9.47;;;4.73;;
15293;SDS011;7748;52.474;13.454;2022-07-23T01:38:37;10.77;;;4.87;;
15293;SDS011;7748;52.474;13.454;2022-07-23T01:41:26;7.13;;;4.73;;
15293;SDS011;7748;52.474;13.454;2022-07-23T01:43:55;6.70;;;4.97;;
15293;SDS011;7748;52.474;13.454;2022-07-23T01:46:26;5.43;;;4.90;;
15293;SDS011;7748;52.474;13.454;2022-07-23T01:48:54;6.97;;;5.20;;
15293;SDS011;7748;52.474;13.454;2022-07-23T01:51:25;8.47;;;4.87;;
15293;SDS011;7748;52.474;13.454;2022-07-23T01:53:55;10.33;;;7.23;;
15293;SDS011;7748;52.474;13.454;2022-07-23T01:56:25;12.93;;;5.37;;
15293;SDS011;7748;52.474;13.454;2022-07-23T01:58:57;9.90;;;4.90;;
15293;SDS011;7748;52.474;13.454;2022-07-23T02:01:25;7.83;;;5.20;;
15293;SDS011;7748;52.474;13.454;2022-07-23T02:03:53;6.47;;;4.53;;
15293;SDS011;7748;52.474;13.454;2022-07-23T02:06:21;9.50;;;6.10;;
15293;SDS011;7748;52.474;13.454;2022-07-23T02:08:49;7.37;;;6.00;;
15293;SDS011;7748;52.474;13.454;2022-07-23T02:11:18;9.43;;;5.40;;
15293;SDS011;7748;52.474;13.454;2022-07-23T02:13:46;7.17;;;5.33;;
15293;SDS011;7748;52.474;13.454;2022-07-23T02:16:14;8.13;;;5.30;;
15293;SDS011;7748;52.474;13.454;2022-07-23T02:18:42;7.70;;;5.67;;
15293;SDS011;7748;52.474;13.454;2022-07-23T02:21:09;8.53;;;5.40;;
15293;SDS011;7748;52.474;13.454;2022-07-23T02:23:37;7.07;;;5.33;;
15293;SDS011;7748;52.474;13.454;2022-07-23T02:26:06;8.13;;;5.20;;
15293;SDS011;7748;52.474;13.454;2022-07-23T02:28:35;7.20;;;5.23;;
15293;SDS011;7748;52.474;13.454;2022-07-23T02:31:03;6.53;;;5.30;;
15293;SDS011;7748;52.474;13.454;2022-07-23T02:33:33;6.60;;;5.20;;
15293;SDS011;7748;52.474;13.454;2022-07-23T02:36:01;7.60;;;6.10;;
15293;SDS011;7748;52.474;13.454;2022-07-23T02:38:29;5.57;;;4.40;;
15293;SDS011;7748;52.474;13.454;2022-07-23T02:40:56;8.63;;;4.23;;
15293;SDS011;7748;52.474;13.454;2022-07-23T02:43:24;7.20;;;5.20;;
15293;SDS011;7748;52.474;13.454;2022-07-23T02:45:53;5.43;;;4.93;;
15293;SDS011;7748;52.474;13.454;2022-07-23T02:48:21;8.73;;;4.67;;
15293;SDS011;7748;52.474;13.454;2022-07-23T02:50:49;11.27;;;5.07;;
15293;SDS011;7748;52.474;13.454;2022-07-23T02:53:18;7.90;;;4.57;;
15293;SDS011;7748;52.474;13.454;2022-07-23T02:55:45;7.37;;;5.10;;
15293;SDS011;7748;52.474;13.454;2022-07-23T02:58:13;5.80;;;4.77;;
15293;SDS011;7748;52.474;13.454;2022-07-23T03:00:41;11.73;;;4.90;;
15293;SDS011;7748;52.474;13.454;2022-07-23T03:03:10;6.53;;;4.80;;
15293;SDS011;7748;52.474;13.454;2022-07-23T03:05:38;5.30;;;4.73;;
15293;SDS011;7748;52.474;13.454;2022-07-23T03:08:06;7.23;;;4.63;;
15293;SDS011;7748;52.474;13.454;2022-07-23T03:10:33;10.93;;;4.63;;
15293;SDS011;7748;52.474;13.454;2022-07-23T03:13:01;7.33;;;4.83;;
15293;SDS011;7748;52.474;13.454;2022-07-23T03:15:29;11.37;;;4.87;;
15293;SDS011;7748;52.474;13.454;2022-07-23T03:17:57;6.17;;;4.37;;
15293;SDS011;7748;52.474;13.454;2022-07-23T03:20:26;8.20;;;4.50;;
15293;SDS011;7748;52.474;13.454;2022-07-23T03:22:54;9.57;;;5.17;;
15293;SDS011;7748;52.474;13.454;2022-07-23T03:25:22;8.83;;;5.23;;
15293;SDS011;7748;52.474;13.454;2022-07-23T03:27:50;8.33;;;5.10;;
15293;SDS011;7748;52.474;13.454;2022-07-23T03:30:18;8.20;;;4.93;;
15293;SDS011;7748;52.474;13.454;2022-07-23T03:32:46;10.63;;;5.03;;
15293;SDS011;7748;52.474;13.454;2022-07-23T03:35:14;10.77;;;5.17;;
15293;SDS011;7748;52.474;13.454;2022-07-23T03:37:44;8.67;;;5.03;;
15293;SDS011;7748;52.474;13.454;2022-07-23T03:40:12;8.60;;;5.30;;
15293;SDS011;7748;52.474;13.454;2022-07-23T03:42:40;5.97;;;4.47;;
15293;SDS011;7748;52.474;13.454;2022-07-23T03:45:08;9.33;;;4.70;;
15293;SDS011;7748;52.474;13.454;2022-07-23T03:47:37;5.70;;;4.87;;
15293;SDS011;7748;52.474;13.454;2022-07-23T03:50:05;9.93;;;4.63;;
15293;SDS011;7748;52.474;13.454;2022-07-23T03:52:34;8.57;;;4.80;;
15293;SDS011;7748;52.474;13.454;2022-07-23T03:55:03;5.07;;;4.37;;
15293;SDS011;7748;52.474;13.454;2022-07-23T03:57:32;9.23;;;4.53;;
15293;SDS011;7748;52.474;13.454;2022-07-23T04:00:00;7.43;;;4.30;;
15293;SDS011;7748;52.474;13.454;2022-07-23T04:02:28;7.00;;;4.40;;
15293;SDS011;7748;52.474;13.454;2022-07-23T04:04:56;9.13;;;4.57;;
15293;SDS011;7748;52.474;13.454;2022-07-23T04:07:24;7.37;;;3.60;;
15293;SDS011;7748;52.474;13.454;2022-07-23T04:09:52;7.03;;;3.93;;
15293;SDS011;7748;52.474;13.454;2022-07-23T04:12:21;12.87;;;4.00;;
15293;SDS011;7748;52.474;13.454;2022-07-23T04:14:49;5.57;;;4.00;;
15293;SDS011;7748;52.474;13.454;2022-07-23T04:17:18;8.60;;;3.77;;
15293;SDS011;7748;52.474;13.454;2022-07-23T04:19:45;4.60;;;3.50;;
15293;SDS011;7748;52.474;13.454;2022-07-23T04:22:13;10.87;;;3.97;;
15293;SDS011;7748;52.474;13.454;2022-07-23T04:24:41;6.33;;;3.47;;
15293;SDS011;7748;52.474;13.454;2022-07-23T04:27:09;7.00;;;3.63;;
15293;SDS011;7748;52.474;13.454;2022-07-23T04:29:38;8.17;;;3.60;;
15293;SDS011;7748;52.474;13.454;2022-07-23T04:32:06;6.63;;;3.47;;
15293;SDS011;7748;52.474;13.454;2022-07-23T04:34:34;10.30;;;3.67;;
15293;SDS011;7748;52.474;13.454;2022-07-23T04:37:02;5.60;;;3.23;;
15293;SDS011;7748;52.474;13.454;2022-07-23T04:39:29;4.43;;;3.33;;
15293;SDS011;7748;52.474;13.454;2022-07-23T04:41:57;5.43;;;3.80;;
15293;SDS011;7748;52.474;13.454;2022-07-23T04:44:25;10.73;;;3.90;;
15293;SDS011;7748;52.474;13.454;2022-07-23T04:46:54;7.23;;;3.63;;
15293;SDS011;7748;52.474;13.454;2022-07-23T04:49:22;6.23;;;3.83;;
15293;SDS011;7748;52.474;13.454;2022-07-23T04:51:50;6.10;;;3.80;;
15293;SDS011;7748;52.474;13.454;2022-07-23T04:54:18;8.10;;;4.10;;
15293;SDS011;7748;52.474;13.454;2022-07-23T04:56:46;10.10;;;3.90;;
15293;SDS011;7748;52.474;13.454;2022-07-23T04:59:14;5.57;;;3.40;;
15293;SDS011;7748;52.474;13.454;2022-07-23T05:01:42;8.77;;;3.63;;
15293;SDS011;7748;52.474;13.454;2022-07-23T05:04:12;6.33;;;3.30;;
15293;SDS011;7748;52.474;13.454;2022-07-23T05:06:40;5.33;;;3.33;;
15293;SDS011;7748;52.474;13.454;2022-07-23T05:09:08;7.10;;;3.50;;
15293;SDS011;7748;52.474;13.454;2022-07-23T05:11:35;8.57;;;3.80;;
15293;SDS011;7748;52.474;13.454;2022-07-23T05:14:03;10.50;;;3.67;;
15293;SDS011;7748;52.474;13.454;2022-07-23T05:16:31;6.50;;;3.70;;
15293;SDS011;7748;52.474;13.454;2022-07-23T05:18:59;5.57;;;3.17;;
15293;SDS011;7748;52.474;13.454;2022-07-23T05:21:29;4.93;;;3.97;;
15293;SDS011;7748;52.474;13.454;2022-07-23T05:23:57;6.20;;;3.80;;
15293;SDS011;7748;52.474;13.454;2022-07-23T05:26:25;6.93;;;3.80;;
15293;SDS011;7748;52.474;13.454;2022-07-23T05:28:53;10.63;;;3.80;;
15293;SDS011;7748;52.474;13.454;2022-07-23T05:31:21;6.63;;;3.70;;
15293;SDS011;7748;52.474;13.454;2022-07-23T05:33:48;7.60;;;3.83;;
15293;SDS011;7748;52.474;13.454;2022-07-23T05:36:16;10.37;;;4.13;;
15293;SDS011;7748;52.474;13.454;2022-07-23T05:38:46;11.17;;;4.60;;
15293;SDS011;7748;52.474;13.454;2022-07-23T05:41:13;6.33;;;3.53;;
15293;SDS011;7748;52.474;13.454;2022-07-23T05:43:41;6.13;;;3.83;;
15293;SDS011;7748;52.474;13.454;2022-07-23T05:46:11;6.97;;;4.00;;
15293;SDS011;7748;52.474;13.454;2022-07-23T05:48:39;9.87;;;3.93;;
15293;SDS011;7748;52.474;13.454;2022-07-23T05:51:07;5.87;;;4.10;;
15293;SDS011;7748;52.474;13.454;2022-07-23T05:53:35;9.27;;;4.10;;
15293;SDS011;7748;52.474;13.454;2022-07-23T05:56:06;7.07;;;4.37;;
15293;SDS011;7748;52.474;13.454;2022-07-23T05:58:34;9.83;;;4.70;;
15293;SDS011;7748;52.474;13.454;2022-07-23T06:01:01;6.57;;;4.13;;
15293;SDS011;7748;52.474;13.454;2022-07-23T06:03:29;8.17;;;3.93;;
15293;SDS011;7748;52.474;13.454;2022-07-23T06:05:57;7.07;;;4.50;;
15293;SDS011;7748;52.474;13.454;2022-07-23T06:08:25;10.17;;;4.07;;
15293;SDS011;7748;52.474;13.454;2022-07-23T06:10:53;7.43;;;4.13;;
15293;SDS011;7748;52.474;13.454;2022-07-23T06:13:22;5.70;;;3.63;;
15293;SDS011;7748;52.474;13.454;2022-07-23T06:15:50;7.53;;;4.20;;
15293;SDS011;7748;52.474;13.454;2022-07-23T06:18:18;7.30;;;4.00;;
15293;SDS011;7748;52.474;13.454;2022-07-23T06:20:47;4.97;;;3.50;;
15293;SDS011;7748;52.474;13.454;2022-07-23T06:23:17;7.70;;;4.23;;
15293;SDS011;7748;52.474;13.454;2022-07-23T06:25:45;6.40;;;4.17;;
15293;SDS011;7748;52.474;13.454;2022-07-23T06:28:12;7.93;;;4.50;;
15293;SDS011;7748;52.474;13.454;2022-07-23T06:30:41;9.80;;;4.37;;
15293;SDS011;7748;52.474;13.454;2022-07-23T06:33:09;4.43;;;3.80;;
15293;SDS011;7748;52.474;13.454;2022-07-23T06:35:39;4.00;;;3.53;;
15293;SDS011;7748;52.474;13.454;2022-07-23T06:38:07;10.10;;;4.30;;
15293;SDS011;7748;52.474;13.454;2022-07-23T06:40:37;8.57;;;4.60;;
15293;SDS011;7748;52.474;13.454;2022-07-23T06:43:05;11.47;;;5.00;;
15293;SDS011;7748;52.474;13.454;2022-07-23T06:45:32;7.80;;;4.57;;
15293;SDS011;7748;52.474;13.454;2022-07-23T06:48:01;8.07;;;5.07;;
15293;SDS011;7748;52.474;13.454;2022-07-23T06:50:29;7.17;;;4.80;;
15293;SDS011;7748;52.474;13.454;2022-07-23T06:52:57;8.77;;;5.50;;
15293;SDS011;7748;52.474;13.454;2022-07-23T06:55:25;7.23;;;4.93;;
15293;SDS011;7748;52.474;13.454;2022-07-23T06:57:53;7.53;;;4.80;;
15293;SDS011;7748;52.474;13.454;2022-07-23T07:00:21;10.43;;;4.97;;
15293;SDS011;7748;52.474;13.454;2022-07-23T07:02:49;15.73;;;7.70;;
15293;SDS011;7748;52.474;13.454;2022-07-23T07:05:18;46.53;;;30.47;;
15293;SDS011;7748;52.474;13.454;2022-07-23T07:07:46;31.70;;;24.30;;
15293;SDS011;7748;52.474;13.454;2022-07-23T07:10:14;46.33;;;37.97;;
15293;SDS011;7748;52.474;13.454;2022-07-23T07:12:43;32.63;;;27.50;;
15293;SDS011;7748;52.474;13.454;2022-07-23T07:15:11;23.43;;;16.00;;
15293;SDS011;7748;52.474;13.454;2022-07-23T07:17:39;20.80;;;13.87;;
15293;SDS011;7748;52.474;13.454;2022-07-23T07:20:09;12.83;;;10.43;;
15293;SDS011;7748;52.474;13.454;2022-07-23T07:22:38;11.27;;;6.60;;
15293;SDS011;7748;52.474;13.454;2022-07-23T07:25:07;10.87;;;5.77;;
15293;SDS011;7748;52.474;13.454;2022-07-23T07:27:37;9.20;;;4.53;;
15293;SDS011;7748;52.474;13.454;2022-07-23T07:30:05;7.87;;;4.20;;
15293;SDS011;7748;52.474;13.454;2022-07-23T07:32:34;8.60;;;4.53;;
15293;SDS011;7748;52.474;13.454;2022-07-23T07:35:23;11.37;;;5.37;;
15293;SDS011;7748;52.474;13.454;2022-07-23T07:37:52;6.17;;;4.53;;
15293;SDS011;7748;52.474;13.454;2022-07-23T07:40:20;8.30;;;4.67;;
15293;SDS011;7748;52.474;13.454;2022-07-23T07:42:49;6.93;;;4.70;;
15293;SDS011;7748;52.474;13.454;2022-07-23T07:45:19;13.07;;;5.23;;
15293;SDS011;7748;52.474;13.454;2022-07-23T07:47:49;9.03;;;4.23;;
15293;SDS011;7748;52.474;13.454;2022-07-23T07:50:17;7.47;;;4.33;;
15293;SDS011;7748;52.474;13.454;2022-07-23T07:52:45;7.33;;;4.23;;
15293;SDS011;7748;52.474;13.454;2022-07-23T07:55:15;13.33;;;4.70;;
15293;SDS011;7748;52.474;13.454;2022-07-23T07:57:44;4.33;;;3.93;;
15293;SDS011;7748;52.474;13.454;2022-07-23T08:00:14;8.73;;;4.57;;
15293;SDS011;7748;52.474;13.454;2022-07-23T08:02:43;4.40;;;4.00;;
15293;SDS011;7748;52.474;13.454;2022-07-23T08:05:13;5.40;;;4.10;;
15293;SDS011;7748;52.474;13.454;2022-07-23T08:07:42;7.37;;;4.20;;
15293;SDS011;7748;52.474;13.454;2022-07-23T08:10:10;8.30;;;4.90;;
15293;SDS011;7748;52.474;13.454;2022-07-23T08:12:39;12.43;;;5.80;;
15293;SDS011;7748;52.474;13.454;2022-07-23T08:15:08;8.30;;;6.07;;
15293;SDS011;7748;52.474;13.454;2022-07-23T08:17:40;12.07;;;6.37;;
15293;SDS011;7748;52.474;13.454;2022-07-23T08:20:09;10.37;;;6.17;;
15293;SDS011;7748;52.474;13.454;2022-07-23T08:22:42;10.00;;;5.77;;
15293;SDS011;7748;52.474;13.454;2022-07-23T08:25:12;13.00;;;6.87;;
15293;SDS011;7748;52.474;13.454;2022-07-23T08:27:41;12.77;;;7.57;;
15293;SDS011;7748;52.474;13.454;2022-07-23T08:30:10;10.07;;;5.97;;
15293;SDS011;7748;52.474;13.454;2022-07-23T08:32:47;10.20;;;5.70;;
15293;SDS011;7748;52.474;13.454;2022-07-23T08:35:26;9.53;;;5.67;;
15293;SDS011;7748;52.474;13.454;2022-07-23T08:37:56;7.50;;;5.27;;
15293;SDS011;7748;52.474;13.454;2022-07-23T08:40:25;7.07;;;4.87;;
15293;SDS011;7748;52.474;13.454;2022-07-23T08:42:55;7.50;;;4.90;;
15293;SDS011;7748;52.474;13.454;2022-07-23T08:45:24;9.27;;;5.00;;
15293;SDS011;7748;52.474;13.454;2022-07-23T08:47:54;8.70;;;5.10;;
15293;SDS011;7748;52.474;13.454;2022-07-23T08:50:28;8.67;;;5.07;;
15293;SDS011;7748;52.474;13.454;2022-07-23T08:52:56;15.57;;;9.23;;
15293;SDS011;7748;52.474;13.454;2022-07-23T08:55:26;6.60;;;4.53;;
15293;SDS011;7748;52.474;13.454;2022-07-23T08:57:55;11.53;;;5.57;;
15293;SDS011;7748;52.474;13.454;2022-07-23T09:00:23;8.27;;;5.00;;
15293;SDS011;7748;52.474;13.454;2022-07-23T09:02:51;5.83;;;4.73;;
15293;SDS011;7748;52.474;13.454;2022-07-23T09:05:19;12.73;;;5.13;;
15293;SDS011;7748;52.474;13.454;2022-07-23T09:08:04;12.53;;;5.43;;
15293;SDS011;7748;52.474;13.454;2022-07-23T09:10:47;12.83;;;4.97;;
15293;SDS011;7748;52.474;13.454;2022-07-23T09:13:34;10.23;;;3.67;;
15293;SDS011;7748;52.474;13.454;2022-07-23T09:16:05;7.43;;;4.23;;
15293;SDS011;7748;52.474;13.454;2022-07-23T09:18:37;12.53;;;5.30;;
15293;SDS011;7748;52.474;13.454;2022-07-23T09:21:09;9.40;;;4.53;;
15293;SDS011;7748;52.474;13.454;2022-07-23T09:23:42;6.57;;;4.10;;
15293;SDS011;7748;52.474;13.454;2022-07-23T09:26:17;5.03;;;4.50;;
15293;SDS011;7748;52.474;13.454;2022-07-23T09:28:51;6.00;;;4.03;;
15293;SDS011;7748;52.474;13.454;2022-07-23T09:31:22;8.87;;;4.73;;
15293;SDS011;7748;52.474;13.454;2022-07-23T09:33:51;7.00;;;4.20;;
15293;SDS011;7748;52.474;13.454;2022-07-23T09:36:28;8.07;;;3.80;;
15293;SDS011;7748;52.474;13.454;2022-07-23T09:38:56;9.50;;;4.77;;
15293;SDS011;7748;52.474;13.454;2022-07-23T09:41:25;8.33;;;4.17;;
15293;SDS011;7748;52.474;13.454;2022-07-23T09:44:07;7.13;;;3.70;;
15293;SDS011;7748;52.474;13.454;2022-07-23T09:46:37;10.53;;;4.47;;
15293;SDS011;7748;52.474;13.454;2022-07-23T09:49:11;12.23;;;7.80;;
15293;SDS011;7748;52.474;13.454;2022-07-23T09:51:47;7.57;;;4.27;;
15293;SDS011;7748;52.474;13.454;2022-07-23T09:54:24;10.67;;;4.87;;
15293;SDS011;7748;52.474;13.454;2022-07-23T09:56:59;8.50;;;4.47;;
15293;SDS011;7748;52.474;13.454;2022-07-23T09:59:31;5.00;;;4.00;;
15293;SDS011;7748;52.474;13.454;2022-07-23T10:02:00;11.73;;;4.63;;
15293;SDS011;7748;52.474;13.454;2022-07-23T10:04:30;7.23;;;5.53;;
15293;SDS011;7748;52.474;13.454;2022-07-23T10:06:59;7.57;;;4.47;;
15293;SDS011;7748;52.474;13.454;2022-07-23T10:09:30;10.30;;;3.60;;
15293;SDS011;7748;52.474;13.454;2022-07-23T10:12:01;4.57;;;3.50;;
15293;SDS011;7748;52.474;13.454;2022-07-23T10:14:47;6.50;;;4.00;;
15293;SDS011;7748;52.474;13.454;2022-07-23T10:17:16;7.97;;;4.30;;
15293;SDS011;7748;52.474;13.454;2022-07-23T10:19:45;10.47;;;3.93;;
15293;SDS011;7748;52.474;13.454;2022-07-23T10:22:14;5.30;;;3.73;;
15293;SDS011;7748;52.474;13.454;2022-07-23T10:24:49;7.83;;;3.63;;
15293;SDS011;7748;52.474;13.454;2022-07-23T10:30:26;18.30;;;10.20;;
15293;SDS011;7748;52.474;13.454;2022-07-23T10:33:03;5.30;;;3.60;;
15293;SDS011;7748;52.474;13.454;2022-07-23T10:35:44;6.73;;;4.73;;
15293;SDS011;7748;52.474;13.454;2022-07-23T10:38:19;5.83;;;3.70;;
15293;SDS011;7748;52.474;13.454;2022-07-23T10:40:53;7.17;;;3.50;;
15293;SDS011;7748;52.474;13.454;2022-07-23T10:43:22;4.63;;;3.83;;
15293;SDS011;7748;52.474;13.454;2022-07-23T10:45:51;6.93;;;3.90;;
15293;SDS011;7748;52.474;13.454;2022-07-23T10:48:20;4.43;;;3.70;;
15293;SDS011;7748;52.474;13.454;2022-07-23T10:53:54;5.90;;;4.27;;
15293;SDS011;7748;52.474;13.454;2022-07-23T11:02:45;5.63;;;3.70;;
15293;SDS011;7748;52.474;13.454;2022-07-23T11:05:14;8.77;;;4.00;;
15293;SDS011;7748;52.474;13.454;2022-07-23T11:10:53;6.37;;;4.23;;
15293;SDS011;7748;52.474;13.454;2022-07-23T11:13:30;20.97;;;11.17;;
15293;SDS011;7748;52.474;13.454;2022-07-23T11:16:07;7.23;;;4.00;;
15293;SDS011;7748;52.474;13.454;2022-07-23T11:18:54;6.13;;;3.90;;
15293;SDS011;7748;52.474;13.454;2022-07-23T11:21:41;6.30;;;4.20;;
15293;SDS011;7748;52.474;13.454;2022-07-23T11:24:14;4.30;;;3.10;;
15293;SDS011;7748;52.474;13.454;2022-07-23T11:26:50;5.03;;;4.53;;
15293;SDS011;7748;52.474;13.454;2022-07-23T11:35:22;6.07;;;4.43;;
15293;SDS011;7748;52.474;13.454;2022-07-23T11:37:54;6.13;;;3.70;;
15293;SDS011;7748;52.474;13.454;2022-07-23T11:40:31;6.10;;;3.47;;
15293;SDS011;7748;52.474;13.454;2022-07-23T11:43:01;4.90;;;4.03;;
15293;SDS011;7748;52.474;13.454;2022-07-23T11:45:33;5.73;;;3.93;;
15293;SDS011;7748;52.474;13.454;2022-07-23T11:48:03;7.03;;;5.00;;
15293;SDS011;7748;52.474;13.454;2022-07-23T11:50:36;6.60;;;3.70;;
15293;SDS011;7748;52.474;13.454;2022-07-23T11:53:05;5.93;;;4.23;;
15293;SDS011;7748;52.474;13.454;2022-07-23T11:55:35;6.30;;;3.40;;
15293;SDS011;7748;52.474;13.454;2022-07-23T11:58:18;7.90;;;5.13;;
15293;SDS011;7748;52.474;13.454;2022-07-23T12:00:48;3.20;;;2.90;;
15293;SDS011;7748;52.474;13.454;2022-07-23T12:03:17;8.53;;;3.73;;
15293;SDS011;7748;52.474;13.454;2022-07-23T12:05:46;6.97;;;3.60;;
15293;SDS011;7748;52.474;13.454;2022-07-23T12:08:14;6.03;;;3.40;;
15293;SDS011;7748;52.474;13.454;2022-07-23T12:10:43;4.77;;;3.37;;
15293;SDS011;7748;52.474;13.454;2022-07-23T12:13:15;5.43;;;3.40;;
15293;SDS011;7748;52.474;13.454;2022-07-23T12:15:45;5.73;;;3.47;;
15293;SDS011;7748;52.474;13.454;2022-07-23T12:18:14;4.57;;;3.23;;
15293;SDS011;7748;52.474;13.454;2022-07-23T12:20:47;18.37;;;12.70;;
15293;SDS011;7748;52.474;13.454;2022-07-23T12:23:46;7.20;;;4.23;;
15293;SDS011;7748;52.474;13.454;2022-07-23T12:29:07;10.60;;;3.80;;
15293;SDS011;7748;52.474;13.454;2022-07-23T12:31:36;10.27;;;4.00;;
15293;SDS011;7748;52.474;13.454;2022-07-23T12:34:13;10.73;;;6.53;;
15293;SDS011;7748;52.474;13.454;2022-07-23T12:36:43;8.50;;;5.57;;
15293;SDS011;7748;52.474;13.454;2022-07-23T12:39:11;6.17;;;4.13;;
15293;SDS011;7748;52.474;13.454;2022-07-23T12:41:51;14.63;;;9.70;;
15293;SDS011;7748;52.474;13.454;2022-07-23T12:44:20;7.37;;;4.67;;
15293;SDS011;7748;52.474;13.454;2022-07-23T12:46:49;5.33;;;3.90;;
15293;SDS011;7748;52.474;13.454;2022-07-23T12:49:24;11.63;;;7.60;;
15293;SDS011;7748;52.474;13.454;2022-07-23T12:52:02;6.30;;;4.07;;
15293;SDS011;7748;52.474;13.454;2022-07-23T12:54:45;7.77;;;3.23;;
15293;SDS011;7748;52.474;13.454;2022-07-23T13:00:21;7.20;;;5.77;;
15293;SDS011;7748;52.474;13.454;2022-07-23T13:02:49;8.80;;;5.90;;
15293;SDS011;7748;52.474;13.454;2022-07-23T13:05:19;6.40;;;4.33;;
15293;SDS011;7748;52.474;13.454;2022-07-23T13:07:58;6.33;;;3.70;;
15293;SDS011;7748;52.474;13.454;2022-07-23T13:10:29;4.17;;;2.90;;
15293;SDS011;7748;52.474;13.454;2022-07-23T13:12:59;7.37;;;3.57;;
15293;SDS011;7748;52.474;13.454;2022-07-23T13:15:29;6.90;;;3.90;;
15293;SDS011;7748;52.474;13.454;2022-07-23T13:18:02;7.60;;;3.40;;
15293;SDS011;7748;52.474;13.454;2022-07-23T13:20:45;7.43;;;5.00;;
15293;SDS011;7748;52.474;13.454;2022-07-23T13:26:13;6.43;;;3.80;;
15293;SDS011;7748;52.474;13.454;2022-07-23T13:28:55;6.27;;;3.73;;
15293;SDS011;7748;52.474;13.454;2022-07-23T13:31:30;4.17;;;3.33;;
15293;SDS011;7748;52.474;13.454;2022-07-23T13:34:04;6.20;;;3.23;;
15293;SDS011;7748;52.474;13.454;2022-07-23T13:36:34;6.47;;;4.30;;
15293;SDS011;7748;52.474;13.454;2022-07-23T13:39:09;6.57;;;4.10;;
15293;SDS011;7748;52.474;13.454;2022-07-23T13:41:38;6.03;;;3.37;;
15293;SDS011;7748;52.474;13.454;2022-07-23T13:44:15;9.27;;;3.67;;
15293;SDS011;7748;52.474;13.454;2022-07-23T13:46:48;7.10;;;3.43;;
15293;SDS011;7748;52.474;13.454;2022-07-23T13:49:30;6.90;;;3.00;;
15293;SDS011;7748;52.474;13.454;2022-07-23T13:52:03;6.47;;;3.70;;
15293;SDS011;7748;52.474;13.454;2022-07-23T13:54:43;3.93;;;3.07;;
15293;SDS011;7748;52.474;13.454;2022-07-23T13:57:11;6.37;;;4.10;;
15293;SDS011;7748;52.474;13.454;2022-07-23T13:59:50;4.50;;;2.90;;
15293;SDS011;7748;52.474;13.454;2022-07-23T14:02:19;7.10;;;3.60;;
15293;SDS011;7748;52.474;13.454;2022-07-23T14:04:51;4.07;;;3.10;;
15293;SDS011;7748;52.474;13.454;2022-07-23T14:07:26;5.73;;;3.77;;
15293;SDS011;7748;52.474;13.454;2022-07-23T14:10:00;5.47;;;3.97;;
15293;SDS011;7748;52.474;13.454;2022-07-23T14:12:28;6.10;;;3.33;;
15293;SDS011;7748;52.474;13.454;2022-07-23T14:14:59;5.07;;;3.47;;
15293;SDS011;7748;52.474;13.454;2022-07-23T14:17:39;3.70;;;3.20;;
15293;SDS011;7748;52.474;13.454;2022-07-23T14:20:10;5.23;;;3.40;;
15293;SDS011;7748;52.474;13.454;2022-07-23T14:22:41;4.30;;;3.20;;
15293;SDS011;7748;52.474;13.454;2022-07-23T14:25:11;5.33;;;3.07;;
15293;SDS011;7748;52.474;13.454;2022-07-23T14:27:41;5.23;;;3.43;;
15293;SDS011;7748;52.474;13.454;2022-07-23T14:30:12;3.53;;;2.77;;
15293;SDS011;7748;52.474;13.454;2022-07-23T14:32:41;3.57;;;2.80;;
15293;SDS011;7748;52.474;13.454;2022-07-23T14:35:09;5.10;;;3.77;;
15293;SDS011;7748;52.474;13.454;2022-07-23T14:37:38;2.67;;;2.30;;
15293;SDS011;7748;52.474;13.454;2022-07-23T14:40:08;6.10;;;3.63;;
15293;SDS011;7748;52.474;13.454;2022-07-23T14:42:40;4.47;;;3.30;;
15293;SDS011;7748;52.474;13.454;2022-07-23T14:45:10;13.43;;;8.00;;
15293;SDS011;7748;52.474;13.454;2022-07-23T14:47:46;8.20;;;3.47;;
15293;SDS011;7748;52.474;13.454;2022-07-23T14:50:14;3.13;;;2.60;;
15293;SDS011;7748;52.474;13.454;2022-07-23T14:52:45;4.77;;;2.93;;
15293;SDS011;7748;52.474;13.454;2022-07-23T14:55:14;3.77;;;3.10;;
15293;SDS011;7748;52.474;13.454;2022-07-23T14:57:45;3.40;;;2.30;;
15293;SDS011;7748;52.474;13.454;2022-07-23T15:00:15;4.97;;;2.67;;
15293;SDS011;7748;52.474;13.454;2022-07-23T15:02:50;4.53;;;2.80;;
15293;SDS011;7748;52.474;13.454;2022-07-23T15:05:21;3.00;;;2.50;;
15293;SDS011;7748;52.474;13.454;2022-07-23T15:07:50;6.60;;;2.90;;
15293;SDS011;7748;52.474;13.454;2022-07-23T15:10:19;4.63;;;2.40;;
15293;SDS011;7748;52.474;13.454;2022-07-23T15:12:49;4.03;;;2.40;;
15293;SDS011;7748;52.474;13.454;2022-07-23T15:15:19;2.40;;;1.80;;
15293;SDS011;7748;52.474;13.454;2022-07-23T15:17:49;2.80;;;2.50;;
15293;SDS011;7748;52.474;13.454;2022-07-23T15:20:22;5.27;;;2.60;;
15293;SDS011;7748;52.474;13.454;2022-07-23T15:23:03;3.13;;;2.37;;
15293;SDS011;7748;52.474;13.454;2022-07-23T15:25:38;3.47;;;2.73;;
15293;SDS011;7748;52.474;13.454;2022-07-23T15:28:17;2.67;;;2.20;;
15293;SDS011;7748;52.474;13.454;2022-07-23T15:30:47;4.20;;;2.27;;
15293;SDS011;7748;52.474;13.454;2022-07-23T15:33:16;3.60;;;2.33;;
15293;SDS011;7748;52.474;13.454;2022-07-23T15:35:47;4.40;;;2.60;;
15293;SDS011;7748;52.474;13.454;2022-07-23T15:38:15;4.87;;;2.40;;